Time;durP1;ratioP1;P1;durP2;ratioP2;P2;SDS_P1;SDS_P2;PMS_P1;PMS_P2;Temp;Humidity;BMP_temperature;BMP_pressure;BME280_temperature;BME280_humidity;BME280_pressure;Samples;Min_cycle;Max_cycle;Signal;HPM_P1;HPM_P2
2022/10/03 00:00:21;;;;;;;16.42;2.45;;;11.70;99.90;;;;;;6226335;23;20011;-76
2022/10/03 00:03:11;;;;;;;10.90;3.58;;;11.70;99.90;;;;;;6227155;23;20023;-77
2022/10/03 00:05:50;;;;;;;8.20;1.90;;;11.60;99.90;;;;;;6226653;23;20020;-78
2022/10/03 00:08:19;;;;;;;10.00;2.30;;;11.60;99.90;;;;;;6251231;23;20063;-77
2022/10/03 00:10:54;;;;;;;10.10;1.95;;;11.60;99.90;;;;;;6226310;23;20240;-76
2022/10/03 00:13:59;;;;;;;15.82;2.97;;;11.50;99.90;;;;;;6225782;23;20317;-75
2022/10/03 00:16:38;;;;;;;8.60;3.05;;;11.40;99.90;;;;;;6176352;23;20210;-77
2022/10/03 00:19:31;;;;;;;8.55;2.38;;;11.40;99.90;;;;;;6226310;23;20023;-76
2022/10/03 00:22:10;;;;;;;16.05;2.33;;;11.40;99.90;;;;;;6225689;23;20091;-76
2022/10/03 00:24:42;;;;;;;12.48;2.78;;;11.60;99.90;;;;;;6226919;23;20012;-75
2022/10/03 00:27:28;;;;;;;13.30;2.05;;;11.80;99.90;;;;;;6250810;23;20008;-74
2022/10/03 00:30:15;;;;;;;6.07;1.75;;;11.90;99.90;;;;;;6251074;23;20015;-76
2022/10/03 00:32:53;;;;;;;7.28;2.00;;;11.80;99.90;;;;;;6226870;23;20217;-76
2022/10/03 00:35:26;;;;;;;11.70;2.45;;;11.80;99.90;;;;;;6252100;23;20278;-77
2022/10/03 00:38:24;;;;;;;15.02;2.40;;;12.00;99.90;;;;;;6226685;23;20012;-76
2022/10/03 00:41:14;;;;;;;11.10;1.77;;;12.10;99.90;;;;;;6121844;22;20031;-75
2022/10/03 00:43:55;;;;;;;16.10;2.50;;;12.20;99.90;;;;;;6252393;23;20031;-78
2022/10/03 00:46:42;;;;;;;9.95;1.70;;;12.30;99.90;;;;;;6226296;23;20047;-76
2022/10/03 00:49:32;;;;;;;11.75;1.48;;;12.10;99.90;;;;;;6251698;23;20091;-76
2022/10/03 00:52:10;;;;;;;10.98;1.85;;;12.10;99.90;;;;;;6250469;23;20194;-77
2022/10/03 00:55:14;;;;;;;10.55;1.70;;;12.10;99.90;;;;;;6252349;23;20312;-77
2022/10/03 00:58:09;;;;;;;7.60;1.77;;;12.10;99.90;;;;;;6225883;23;20039;-76
2022/10/03 01:00:35;;;;;;;9.00;1.80;;;12.10;99.90;;;;;;6226395;23;20072;-76
2022/10/03 01:03:26;;;;;;;11.05;2.05;;;12.10;99.90;;;;;;6250315;23;20012;-77
2022/10/03 01:06:08;;;;;;;10.55;1.58;;;12.30;99.90;;;;;;6226183;23;20012;-76
2022/10/03 01:08:57;;;;;;;9.23;1.88;;;12.10;99.90;;;;;;6226956;23;20286;-78
2022/10/03 01:11:33;;;;;;;8.18;1.60;;;12.20;99.90;;;;;;6224802;23;20058;-77
2022/10/03 01:14:27;;;;;;;10.05;2.15;;;12.10;99.90;;;;;;6226192;23;20027;-78
2022/10/03 01:17:16;;;;;;;7.57;1.65;;;12.10;99.90;;;;;;6252982;23;20186;-76
2022/10/03 01:20:18;;;;;;;7.32;2.00;;;12.20;99.90;;;;;;6227432;23;20023;-77
2022/10/03 01:23:15;;;;;;;7.55;1.50;;;12.20;99.90;;;;;;6227162;23;20074;-78
2022/10/03 01:26:05;;;;;;;9.27;2.00;;;12.10;99.90;;;;;;6228587;23;20319;-77
2022/10/03 01:32:04;;;;;;;13.80;2.97;;;12.40;99.90;;;;;;6252115;23;20027;-77
2022/10/03 01:34:58;;;;;;;7.57;2.08;;;12.20;99.90;;;;;;6253454;23;20233;-77
2022/10/03 01:37:47;;;;;;;8.43;1.42;;;12.30;99.90;;;;;;6227430;23;20035;-78
2022/10/03 01:40:33;;;;;;;9.07;2.03;;;12.10;99.90;;;;;;6228072;23;20042;-77
2022/10/03 01:43:20;;;;;;;9.70;1.73;;;12.00;99.90;;;;;;6226394;23;20016;-78
2022/10/03 01:46:11;;;;;;;13.57;2.08;;;12.20;99.90;;;;;;6253410;23;20089;-77
2022/10/03 01:48:52;;;;;;;10.02;1.80;;;12.00;99.90;;;;;;6253449;23;20351;-79
2022/10/03 01:51:40;;;;;;;11.45;2.35;;;12.00;99.90;;;;;;6253048;23;20015;-77
2022/10/03 01:54:15;;;;;;;11.93;1.48;;;11.90;99.90;;;;;;6226957;23;20012;-76
2022/10/03 01:57:29;;;;;;;6.45;1.70;;;11.70;99.90;;;;;;6253458;23;20578;-77
2022/10/03 02:00:13;;;;;;;7.55;1.42;;;11.70;99.90;;;;;;6239512;23;20302;-76
2022/10/03 02:02:57;;;;;;;9.73;1.67;;;11.90;99.90;;;;;;6227277;23;20016;-77
2022/10/03 02:05:54;;;;;;;13.53;2.27;;;12.00;99.90;;;;;;6253628;23;20067;-77
2022/10/03 02:08:53;;;;;;;12.25;1.77;;;11.70;99.90;;;;;;6227487;23;20285;-77
2022/10/03 02:12:11;;;;;;;7.40;1.70;;;11.90;99.90;;;;;;6252713;23;20035;-77
2022/10/03 02:14:47;;;;;;;12.45;1.88;;;12.30;99.90;;;;;;6236387;23;20043;-75
2022/10/03 02:17:44;;;;;;;8.48;1.67;;;11.80;99.90;;;;;;6252859;23;20087;-74
2022/10/03 02:20:28;;;;;;;8.15;1.70;;;11.70;99.90;;;;;;6226693;23;20066;-76
2022/10/03 02:22:56;;;;;;;7.80;1.97;;;12.00;99.90;;;;;;6252183;23;20202;-76
2022/10/03 02:25:34;;;;;;;10.98;1.52;;;11.90;99.90;;;;;;6202735;23;20020;-76
2022/10/03 02:28:38;;;;;;;12.38;2.05;;;11.70;99.90;;;;;;6226913;23;20035;-76
2022/10/03 02:31:45;;;;;;;7.28;1.38;;;11.90;99.90;;;;;;6105254;23;20008;-77
2022/10/03 02:34:32;;;;;;;6.13;1.40;;;11.70;99.90;;;;;;6202565;23;20020;-77
2022/10/03 02:37:10;;;;;;;8.68;1.38;;;12.00;99.90;;;;;;6227490;23;20027;-77
2022/10/03 02:40:16;;;;;;;11.15;1.85;;;11.90;99.90;;;;;;6253051;23;20297;-76
2022/10/03 02:43:00;;;;;;;;;;;11.80;99.90;;;;;;6227676;23;20020;-77
2022/10/03 02:46:02;;;;;;;14.55;2.05;;;11.90;99.90;;;;;;6252144;23;19911;-77
2022/10/03 02:49:02;;;;;;;7.28;1.67;;;12.00;99.90;;;;;;6226868;23;20160;-77
2022/10/03 02:51:42;;;;;;;4.20;1.30;;;11.90;99.90;;;;;;6126888;22;20008;-75
2022/10/03 02:54:53;;;;;;;8.27;1.50;;;12.10;99.90;;;;;;6251873;23;20054;-79
2022/10/03 03:01:11;;;;;;;9.35;1.38;;;11.90;99.90;;;;;;6195213;23;20074;-78
2022/10/03 03:04:18;;;;;;;10.43;1.85;;;12.20;99.90;;;;;;6252253;23;20259;-76
2022/10/03 03:07:18;;;;;;;10.32;1.55;;;12.20;99.90;;;;;;6252533;23;20039;-77
2022/10/03 03:10:06;;;;;;;5.47;1.70;;;12.00;99.90;;;;;;6252490;23;20015;-77
2022/10/03 03:12:58;;;;;;;6.93;1.50;;;12.30;99.90;;;;;;6250913;23;20102;-76
2022/10/03 03:15:45;;;;;;;10.10;2.15;;;12.20;99.90;;;;;;6251993;23;20008;-76
2022/10/03 03:18:55;;;;;;;11.90;1.75;;;12.30;99.90;;;;;;6226286;23;20012;-77
2022/10/03 03:21:43;;;;;;;11.55;2.30;;;12.10;99.90;;;;;;6106951;23;20197;-77
2022/10/03 03:24:14;;;;;;;12.95;2.08;;;12.10;99.90;;;;;;6243440;23;20044;-76
2022/10/03 03:26:49;;;;;;;9.38;1.60;;;12.30;99.90;;;;;;6226959;23;20086;-76
2022/10/03 03:29:26;;;;;;;5.40;1.20;;;12.10;99.90;;;;;;6226882;23;20038;-76
2022/10/03 03:32:18;;;;;;;8.20;1.73;;;12.30;99.90;;;;;;6252842;23;20038;-78
2022/10/03 03:35:04;;;;;;;7.05;2.15;;;12.10;99.90;;;;;;6252267;23;20012;-78
2022/10/03 03:37:42;;;;;;;8.32;1.80;;;12.00;99.90;;;;;;6227191;23;20012;-78
2022/10/03 03:40:22;;;;;;;6.07;1.70;;;12.00;99.90;;;;;;6252418;23;20047;-78
2022/10/03 03:43:03;;;;;;;14.57;1.58;;;12.00;99.90;;;;;;6252795;23;20035;-78
2022/10/03 03:45:53;;;;;;;12.77;1.88;;;12.00;99.90;;;;;;6252310;23;20012;-77
2022/10/03 03:48:43;;;;;;;11.82;2.25;;;12.00;99.90;;;;;;6251890;23;20286;-78
2022/10/03 03:51:51;;;;;;;6.90;1.60;;;12.20;99.90;;;;;;6251690;23;20015;-78
2022/10/03 03:54:59;;;;;;;9.18;1.40;;;12.10;99.90;;;;;;6155583;23;20019;-79
2022/10/03 03:57:40;;;;;;;4.97;1.27;;;12.10;99.90;;;;;;6131468;23;20063;-76
2022/10/03 04:00:22;;;;;;;9.63;1.60;;;12.30;99.90;;;;;;6226775;23;20044;-77
2022/10/03 04:02:53;;;;;;;13.57;1.83;;;12.30;99.90;;;;;;6225931;23;20117;-78
2022/10/03 04:05:33;;;;;;;12.30;1.80;;;12.00;99.90;;;;;;6225460;23;20012;-77
2022/10/03 04:08:14;;;;;;;9.27;1.50;;;12.20;99.90;;;;;;6226175;23;20015;-79
2022/10/03 04:11:11;;;;;;;8.70;1.60;;;12.20;99.90;;;;;;6226130;23;20008;-78
2022/10/03 04:13:46;;;;;;;8.88;1.90;;;12.30;99.90;;;;;;6252021;23;20062;-77
2022/10/03 04:18:56;;;;;;;12.90;2.15;;;12.20;99.90;;;;;;6226310;23;20008;-76
2022/10/03 04:19:25;;;;;;;13.27;2.05;;;12.00;99.90;;;;;;6251256;23;20020;-76
2022/10/03 04:22:10;;;;;;;7.07;1.38;;;12.20;99.90;;;;;;6225690;23;20016;-76
2022/10/03 04:24:53;;;;;;;4.80;1.42;;;12.10;99.90;;;;;;6251860;23;20239;-75
2022/10/03 04:27:24;;;;;;;13.43;2.00;;;12.30;99.90;;;;;;6250439;23;20016;-76
2022/10/03 04:30:04;;;;;;;12.60;1.80;;;12.20;99.90;;;;;;6251985;23;20008;-76
2022/10/03 04:32:48;;;;;;;7.50;1.63;;;12.20;99.90;;;;;;6251611;23;20008;-77
2022/10/03 04:35:32;;;;;;;6.10;1.50;;;12.20;99.90;;;;;;6251591;23;20170;-78
2022/10/03 04:38:31;;;;;;;10.43;1.80;;;12.10;99.90;;;;;;6225560;23;20250;-77
2022/10/03 04:41:03;;;;;;;12.25;1.98;;;11.90;99.90;;;;;;6226918;23;20016;-78
2022/10/03 04:47:56;;;;;;;11.25;1.75;;;11.90;99.90;;;;;;6252516;23;20028;-77
2022/10/03 04:50:38;;;;;;;6.88;1.73;;;12.20;99.90;;;;;;6105688;23;20241;-76
2022/10/03 04:53:22;;;;;;;7.75;1.83;;;12.00;99.90;;;;;;6084547;23;20014;-76
2022/10/03 04:55:52;;;;;;;8.93;3.42;;;12.00;99.90;;;;;;6196557;23;20011;-76
2022/10/03 04:58:46;;;;;;;9.88;1.48;;;11.80;99.90;;;;;;6252798;23;20062;-77
2022/10/03 05:01:32;;;;;;;9.13;1.47;;;12.00;99.90;;;;;;6174333;23;20042;-76
2022/10/03 05:04:25;;;;;;;10.07;1.60;;;11.90;99.90;;;;;;6228165;23;20310;-76
2022/10/03 05:07:18;;;;;;;8.82;1.80;;;11.70;99.90;;;;;;6253891;23;20015;-77
2022/10/03 05:10:15;;;;;;;7.10;1.80;;;11.60;99.90;;;;;;6227848;23;20036;-76
2022/10/03 05:12:53;;;;;;;6.55;1.42;;;11.40;99.90;;;;;;6227393;23;20067;-75
2022/10/03 05:15:21;;;;;;;9.50;2.33;;;11.30;99.90;;;;;;6225896;23;20018;-77
2022/10/03 05:18:03;;;;;;;6.03;1.30;;;11.50;99.90;;;;;;6253793;23;20018;-77
2022/10/03 05:20:47;;;;;;;5.53;1.45;;;11.40;99.90;;;;;;6252577;23;20061;-78
2022/10/03 05:23:23;;;;;;;7.90;2.92;;;11.40;99.90;;;;;;6253501;23;20036;-78
2022/10/03 05:26:40;;;;;;;9.27;1.60;;;11.30;99.90;;;;;;6226987;23;20250;-79
2022/10/03 05:29:15;;;;;;;6.18;1.58;;;11.10;99.90;;;;;;6171297;23;20127;-78
2022/10/03 05:31:56;;;;;;;;;;;11.10;99.90;;;;;;6254046;23;20008;-79
2022/10/03 05:34:47;;;;;;;8.32;1.38;;;11.00;99.90;;;;;;6228272;23;19955;-79
2022/10/03 05:37:28;;;;;;;9.32;2.03;;;10.90;99.90;;;;;;6227188;23;20020;-77
2022/10/03 05:40:01;;;;;;;7.40;1.75;;;11.10;99.90;;;;;;6228440;23;20035;-76
2022/10/03 05:42:46;;;;;;;5.22;1.70;;;11.10;99.90;;;;;;6227796;23;20069;-77
2022/10/03 05:45:35;;;;;;;13.37;2.07;;;11.10;99.90;;;;;;6227669;23;20114;-78
2022/10/03 05:48:06;;;;;;;7.88;1.40;;;11.20;99.90;;;;;;6227920;23;20015;-76
2022/10/03 05:50:46;;;;;;;7.78;2.05;;;11.00;99.90;;;;;;6252182;23;20008;-77
2022/10/03 05:53:29;;;;;;;5.45;1.38;;;11.10;99.90;;;;;;6227597;23;20016;-77
2022/10/03 05:56:20;;;;;;;8.57;1.50;;;11.10;99.90;;;;;;6253775;23;20019;-74
2022/10/03 05:59:29;;;;;;;10.48;2.13;;;11.00;99.90;;;;;;6227739;23;20067;-78
2022/10/03 06:02:20;;;;;;;10.18;1.95;;;11.20;99.90;;;;;;6083185;23;20014;-76
2022/10/03 06:04:45;;;;;;;11.85;1.92;;;11.10;99.90;;;;;;6106857;23;20200;-75
2022/10/03 06:07:17;;;;;;;12.32;2.00;;;11.00;99.90;;;;;;6202881;23;20066;-76
2022/10/03 06:10:03;;;;;;;7.88;1.70;;;11.30;99.90;;;;;;6227451;23;20059;-76
2022/10/03 06:12:39;;;;;;;9.23;1.65;;;11.10;99.90;;;;;;6252338;23;20008;-76
2022/10/03 06:15:42;;;;;;;10.70;2.10;;;11.30;99.90;;;;;;6251427;23;20062;-77
2022/10/03 06:18:44;;;;;;;11.25;1.92;;;11.40;99.90;;;;;;6226806;23;20099;-76
2022/10/03 06:21:41;;;;;;;7.55;2.05;;;11.30;99.90;;;;;;6227015;23;20035;-78
2022/10/03 06:24:41;;;;;;;9.23;1.70;;;11.30;99.90;;;;;;6227310;23;20074;-78
2022/10/03 06:27:21;;;;;;;7.82;2.65;;;11.30;99.90;;;;;;6252830;23;20223;-78
2022/10/03 06:30:44;;;;;;;4.03;1.95;;;11.50;99.90;;;;;;6251835;23;20031;-77
2022/10/03 06:33:31;;;;;;;5.22;1.95;;;12.50;99.90;;;;;;6127615;23;20016;-76
2022/10/03 06:36:21;;;;;;;4.93;2.28;;;11.90;99.90;;;;;;6251663;23;20020;-75
2022/10/03 06:39:17;;;;;;;6.93;2.10;;;12.00;99.90;;;;;;6226377;23;20031;-76
2022/10/03 06:42:46;;;;;;;8.13;1.85;;;12.00;99.90;;;;;;6226505;23;20079;-78
2022/10/03 06:45:42;;;;;;;7.07;1.98;;;12.20;99.90;;;;;;6107640;23;20029;-78
2022/10/03 06:48:59;;;;;;;5.85;1.77;;;12.50;99.90;;;;;;6253017;23;20242;-77
2022/10/03 06:51:44;;;;;;;5.63;1.83;;;12.60;99.90;;;;;;6226016;23;20016;-79
2022/10/03 06:54:40;;;;;;;6.90;2.47;;;12.60;99.90;;;;;;6252563;23;20058;-77
2022/10/03 06:57:50;;;;;;;6.80;2.40;;;12.60;99.90;;;;;;6252644;23;20030;-80
2022/10/03 07:00:20;;;;;;;7.35;1.83;;;12.90;99.90;;;;;;6106209;22;20064;-78
2022/10/03 07:02:51;;;;;;;9.43;2.60;;;13.40;99.90;;;;;;6227627;23;20019;-77
2022/10/03 07:05:45;;;;;;;7.78;2.97;;;13.40;99.90;;;;;;6252196;23;20046;-79
2022/10/03 07:08:59;;;;;;;7.97;3.25;;;13.40;99.90;;;;;;6252266;23;20062;-79
2022/10/03 07:11:46;;;;;;;4.95;2.40;;;13.30;99.90;;;;;;6251474;23;20036;-78
2022/10/03 07:14:39;;;;;;;5.78;2.22;;;13.80;99.90;;;;;;6252820;23;20011;-81
2022/10/03 07:17:33;;;;;;;8.20;2.45;;;13.80;99.90;;;;;;6228137;23;20020;-78
2022/10/03 07:20:34;;;;;;;6.97;2.10;;;13.80;99.90;;;;;;6253462;23;20065;-78
2022/10/03 07:23:36;;;;;;;5.28;2.10;;;13.90;99.90;;;;;;6252025;23;20027;-78
2022/10/03 07:26:27;;;;;;;7.40;1.90;;;14.10;99.90;;;;;;6252812;23;20093;-78
2022/10/03 07:29:06;;;;;;;7.72;1.70;;;14.20;99.90;;;;;;6252926;23;20020;-78
2022/10/03 07:31:44;;;;;;;7.03;1.80;;;14.20;99.90;;;;;;6252321;23;20302;-79
2022/10/03 07:34:25;;;;;;;6.78;1.45;;;14.10;99.90;;;;;;6227773;23;20242;-77
2022/10/03 07:39:50;;;;;;;7.53;1.88;;;14.30;99.90;;;;;;6252888;23;20016;-80
2022/10/03 07:42:53;;;;;;;6.43;1.38;;;14.30;99.90;;;;;;6227943;23;20268;-78
2022/10/03 07:46:00;;;;;;;5.25;2.67;;;14.30;99.90;;;;;;6251782;23;20050;-78
2022/10/03 07:49:17;;;;;;;8.60;2.10;;;14.30;99.90;;;;;;6158424;23;20063;-79
2022/10/03 07:51:59;;;;;;;;;;;14.40;99.90;;;;;;6253399;23;20318;-77
2022/10/03 07:54:50;;;;;;;4.80;1.50;;;14.40;99.90;;;;;;6251822;23;19907;-75
2022/10/03 07:57:47;;;;;;;7.57;2.40;;;14.50;99.90;;;;;;6225524;23;20012;-76
2022/10/03 08:00:21;;;;;;;8.60;1.90;;;14.40;99.90;;;;;;6183154;23;20011;-75
2022/10/03 08:03:09;;;;;;;9.15;1.60;;;14.40;99.90;;;;;;6227482;23;20011;-75
2022/10/03 08:06:05;;;;;;;11.05;2.13;;;14.30;99.90;;;;;;6225325;23;20012;-76
2022/10/03 08:08:54;;;;;;;6.72;1.65;;;14.30;99.90;;;;;;6251929;23;20186;-75
2022/10/03 08:11:26;;;;;;;6.20;1.30;;;14.40;99.90;;;;;;6252224;23;20008;-76
2022/10/03 08:14:19;;;;;;;5.75;1.60;;;14.30;99.90;;;;;;6251403;23;20016;-78
2022/10/03 08:16:47;;;;;;;8.00;1.98;;;14.20;99.90;;;;;;6251746;23;20067;-77
2022/10/03 08:19:58;;;;;;;6.32;1.60;;;14.20;99.90;;;;;;6226349;23;20023;-77
2022/10/03 08:22:52;;;;;;;6.03;1.70;;;14.40;99.90;;;;;;6226317;23;20166;-78
2022/10/03 08:25:43;;;;;;;9.03;1.97;;;14.30;99.90;;;;;;6253174;23;20051;-77
2022/10/03 08:28:20;;;;;;;7.97;1.63;;;14.50;99.90;;;;;;6251727;23;20058;-77
2022/10/03 08:31:12;;;;;;;6.78;1.70;;;14.60;99.90;;;;;;6254143;23;20016;-76
2022/10/03 08:33:54;;;;;;;7.90;2.08;;;14.50;99.90;;;;;;6228214;23;20035;-80
2022/10/03 08:36:38;;;;;;;5.28;1.58;;;14.70;99.90;;;;;;6253373;23;20097;-74
2022/10/03 08:39:04;;;;;;;3.63;1.30;;;14.60;99.90;;;;;;6253148;23;20236;-78
2022/10/03 08:42:03;;;;;;;3.92;1.30;;;14.60;99.90;;;;;;6252270;23;20062;-78
2022/10/03 08:44:56;;;;;;;6.82;2.60;;;14.70;99.90;;;;;;6227959;23;20012;-77
2022/10/03 08:47:34;;;;;;;8.93;1.70;;;14.80;99.90;;;;;;6227463;23;20016;-78
2022/10/03 08:50:08;;;;;;;2.97;1.25;;;14.90;99.90;;;;;;6248168;23;20043;-75
2022/10/03 08:52:49;;;;;;;7.78;1.55;;;14.90;99.90;;;;;;6253350;23;20477;-80
2022/10/03 08:55:37;;;;;;;10.82;1.65;;;15.00;99.90;;;;;;6253357;23;20031;-76
2022/10/03 08:58:17;;;;;;;7.93;2.33;;;15.10;99.90;;;;;;6252664;23;20019;-76
2022/10/03 09:01:17;;;;;;;6.05;1.23;;;15.20;99.90;;;;;;6250874;23;20079;-77
2022/10/03 09:03:52;;;;;;;5.18;1.58;;;15.30;99.90;;;;;;6226792;23;20019;-76
2022/10/03 09:06:44;;;;;;;7.18;1.40;;;15.30;99.90;;;;;;6223262;23;20450;-78
2022/10/03 09:09:16;;;;;;;6.00;0.90;;;15.20;99.90;;;;;;6223885;23;20015;-78
2022/10/03 09:12:06;;;;;;;7.90;1.30;;;15.30;99.90;;;;;;6252723;23;20016;-76
2022/10/03 09:14:53;;;;;;;5.03;1.50;;;15.30;99.90;;;;;;6225585;23;20067;-79
2022/10/03 09:17:54;;;;;;;5.00;1.45;;;15.30;99.90;;;;;;6243541;23;20159;-78
2022/10/03 09:20:26;;;;;;;8.10;1.55;;;15.50;99.90;;;;;;6250234;23;20016;-78
2022/10/03 09:23:19;;;;;;;8.32;1.52;;;15.60;99.90;;;;;;6226593;23;20020;-79
2022/10/03 09:26:00;;;;;;;3.83;1.13;;;15.70;99.90;;;;;;6227052;23;20024;-76
2022/10/03 09:29:02;;;;;;;5.32;1.20;;;15.70;99.90;;;;;;6226856;23;20024;-77
2022/10/03 09:31:47;;;;;;;5.72;0.98;;;15.70;99.90;;;;;;6226441;23;20008;-77
2022/10/03 09:34:13;;;;;;;6.22;1.23;;;15.80;99.90;;;;;;6227948;23;20182;-77
2022/10/03 09:36:42;;;;;;;4.43;1.45;;;15.80;99.90;;;;;;6251617;23;20019;-80
2022/10/03 09:39:42;;;;;;;5.97;1.33;;;15.90;99.90;;;;;;6228388;23;20019;-76
2022/10/03 09:42:41;;;;;;;7.30;1.27;;;16.00;99.90;;;;;;6252167;23;20244;-79
2022/10/03 09:45:23;;;;;;;8.77;1.40;;;16.10;99.90;;;;;;6226531;23;20016;-78
2022/10/03 09:47:54;;;;;;;5.85;1.58;;;16.20;99.90;;;;;;6224383;23;20025;-81
2022/10/03 09:50:29;;;;;;;8.70;1.20;;;16.40;99.90;;;;;;6227978;23;20007;-79
2022/10/03 09:53:26;;;;;;;4.57;0.80;;;16.40;99.90;;;;;;6229144;23;20023;-77
2022/10/03 09:56:01;;;;;;;5.35;1.45;;;16.60;99.90;;;;;;6254031;23;20019;-80
2022/10/03 09:58:46;;;;;;;;;;;16.60;99.90;;;;;;6229082;23;20026;-79
2022/10/03 10:01:32;;;;;;;4.63;1.33;;;16.60;99.90;;;;;;6227860;23;20087;-78
2022/10/03 10:04:16;;;;;;;6.35;1.10;;;16.60;99.90;;;;;;6228056;23;20283;-77
2022/10/03 10:07:06;;;;;;;3.53;1.20;;;16.80;99.90;;;;;;6227737;23;20190;-77
2022/10/03 10:09:51;;;;;;;4.55;1.25;;;16.90;99.90;;;;;;6227738;23;20245;-77
2022/10/03 10:12:50;;;;;;;5.15;1.25;;;16.80;99.90;;;;;;6227765;23;20015;-77
2022/10/03 10:15:19;;;;;;;5.93;2.10;;;16.80;99.90;;;;;;6253224;23;20057;-80
2022/10/03 10:18:26;;;;;;;5.05;1.65;;;16.70;99.90;;;;;;6227612;23;20012;-80
2022/10/03 10:21:19;;;;;;;2.97;1.08;;;16.80;99.90;;;;;;6227953;23;20011;-77
2022/10/03 10:24:09;;;;;;;6.40;1.20;;;16.80;99.90;;;;;;6227019;23;20026;-77
2022/10/03 10:27:01;;;;;;;2.97;0.82;;;16.90;99.90;;;;;;6227798;23;20016;-77
2022/10/03 10:29:49;;;;;;;7.45;1.40;;;16.80;99.90;;;;;;6228218;23;20015;-79
2022/10/03 10:32:59;;;;;;;8.77;1.77;;;16.90;99.90;;;;;;6227231;23;20000;-77
2022/10/03 10:35:43;;;;;;;5.13;1.13;;;16.80;99.90;;;;;;6226784;23;20018;-79
2022/10/03 10:38:46;;;;;;;6.40;1.55;;;17.00;99.90;;;;;;6227354;23;20019;-77
2022/10/03 10:41:42;;;;;;;4.70;1.48;;;16.80;99.90;;;;;;6227333;23;20391;-76
2022/10/03 10:44:17;;;;;;;7.63;1.23;;;17.00;99.90;;;;;;6227092;23;20012;-79
2022/10/03 10:47:20;;;;;;;4.15;1.10;;;16.90;99.90;;;;;;6226463;23;20071;-76
2022/10/03 10:50:31;;;;;;;5.30;0.98;;;17.00;99.90;;;;;;6227037;23;20012;-78
2022/10/03 10:53:36;;;;;;;5.43;1.35;;;17.10;99.90;;;;;;6226655;23;20371;-81
2022/10/03 10:56:17;;;;;;;9.73;1.48;;;17.10;99.90;;;;;;6252603;23;20022;-76
2022/10/03 10:59:10;;;;;;;3.97;1.00;;;17.00;99.90;;;;;;6227046;23;20012;-78
2022/10/03 11:02:00;;;;;;;5.80;0.98;;;16.80;99.90;;;;;;6227477;23;20020;-78
2022/10/03 11:05:17;;;;;;;6.50;1.60;;;16.90;99.90;;;;;;6253061;23;20071;-81
2022/10/03 11:08:53;;;;;;;3.13;1.25;;;16.90;99.90;;;;;;6242155;23;20008;-79
2022/10/03 11:12:27;;;;;;;3.25;1.00;;;17.00;99.90;;;;;;6170095;23;20013;-81
2022/10/03 11:19:52;;;;;;;3.38;0.80;;;17.20;99.90;;;;;;6191731;23;20015;-80
2022/10/03 11:26:25;;;;;;;2.85;0.90;;;16.80;99.90;;;;;;6251973;23;20052;-81
2022/10/03 11:29:28;;;;;;;4.10;1.00;;;17.30;99.90;;;;;;6227153;23;20075;-83
2022/10/03 11:32:14;;;;;;;4.43;1.15;;;17.00;99.90;;;;;;6251912;23;20071;-77
2022/10/03 11:35:16;;;;;;;3.63;1.00;;;17.20;99.90;;;;;;6225864;23;20331;-77
2022/10/03 11:38:19;;;;;;;3.87;0.97;;;17.10;99.90;;;;;;6253473;22;20330;-79
2022/10/03 11:40:50;;;;;;;5.80;1.45;;;17.00;99.90;;;;;;6097179;22;20014;-75
2022/10/03 11:43:52;;;;;;;6.57;1.25;;;17.00;99.90;;;;;;6227071;23;20043;-80
2022/10/03 11:46:49;;;;;;;5.15;1.00;;;16.80;99.90;;;;;;6224768;23;20067;-78
2022/10/03 11:49:59;;;;;;;3.80;0.90;;;16.70;99.90;;;;;;6227518;23;20055;-76
2022/10/03 11:52:44;;;;;;;5.20;0.90;;;16.70;99.90;;;;;;6225670;23;20008;-79
2022/10/03 11:55:25;;;;;;;5.07;1.20;;;16.80;99.90;;;;;;6225871;23;20078;-79
2022/10/03 11:58:36;;;;;;;;;;;;;;;;;;;;;
2022/10/03 12:01:06;;;;;;;3.17;1.17;;;16.90;99.90;;;;;;6249898;23;20027;-78
2022/10/03 12:03:42;;;;;;;3.63;1.15;;;16.90;99.90;;;;;;6226834;23;20020;-79
2022/10/03 12:09:23;;;;;;;5.10;1.73;;;16.90;99.90;;;;;;6251757;23;20038;-77
2022/10/03 12:12:08;;;;;;;5.78;1.27;;;17.00;99.90;;;;;;6252118;23;20039;-79
2022/10/03 12:14:48;;;;;;;2.90;1.08;;;17.00;99.90;;;;;;6251714;23;20012;-80
2022/10/03 12:17:33;;;;;;;5.15;0.90;;;17.00;99.90;;;;;;6251632;23;20298;-77
2022/10/03 12:20:21;;;;;;;5.18;0.80;;;16.90;99.90;;;;;;6251404;23;20008;-79
2022/10/03 12:22:52;;;;;;;5.40;1.17;;;16.90;99.90;;;;;;6226333;23;20357;-77
2022/10/03 12:25:24;;;;;;;2.53;0.95;;;16.90;99.90;;;;;;6226716;23;20071;-75
2022/10/03 12:28:23;;;;;;;6.55;1.77;;;16.90;99.90;;;;;;6226093;23;20031;-75
2022/10/03 12:31:01;;;;;;;6.30;1.05;;;16.90;99.90;;;;;;6225473;23;20043;-75
2022/10/03 12:33:43;;;;;;;5.18;1.20;;;17.00;99.90;;;;;;6251436;23;20008;-77
2022/10/03 12:36:44;;;;;;;5.95;1.63;;;17.10;99.90;;;;;;6226532;23;20103;-77
2022/10/03 12:40:16;;;;;;;;;;;;;;;;;;;;;
2022/10/03 12:43:29;;;;;;;3.47;1.30;;;17.10;99.90;;;;;;6219184;22;20046;-78
2022/10/03 12:46:37;;;;;;;2.72;1.27;;;17.10;99.90;;;;;;6176211;23;20051;-78
2022/10/03 12:49:41;;;;;;;3.65;1.05;;;17.20;99.90;;;;;;6224360;23;20181;-77
2022/10/03 12:52:26;;;;;;;4.75;1.20;;;17.20;99.90;;;;;;6251715;23;20082;-78
2022/10/03 12:55:09;;;;;;;4.70;1.17;;;17.10;99.90;;;;;;6226070;23;20015;-79
2022/10/03 12:57:52;;;;;;;4.90;0.90;;;17.10;99.90;;;;;;6251611;23;20203;-74
2022/10/03 13:00:32;;;;;;;4.60;1.17;;;17.10;99.90;;;;;;6225062;23;20061;-78
2022/10/03 13:03:22;;;;;;;3.30;0.90;;;17.10;99.90;;;;;;6251587;23;20336;-76
2022/10/03 13:06:04;;;;;;;4.20;0.95;;;17.10;99.90;;;;;;6251336;23;20016;-77
2022/10/03 13:08:43;;;;;;;2.95;0.93;;;17.10;99.90;;;;;;6226567;23;20012;-76
2022/10/03 13:11:38;;;;;;;4.90;0.90;;;17.20;99.90;;;;;;6250759;23;20283;-77
2022/10/03 13:14:44;;;;;;;3.05;0.95;;;17.40;99.90;;;;;;6227757;23;20261;-78
2022/10/03 13:17:26;;;;;;;3.83;1.15;;;17.40;99.90;;;;;;6233330;23;20043;-76
2022/10/03 13:20:15;;;;;;;3.58;0.98;;;17.40;99.90;;;;;;6226434;23;20044;-76
2022/10/03 13:23:06;;;;;;;3.05;0.80;;;17.40;99.90;;;;;;6227235;23;20024;-76
2022/10/03 13:25:51;;;;;;;2.35;0.80;;;17.30;99.90;;;;;;6150907;23;20024;-78
2022/10/03 13:28:38;;;;;;;3.85;1.00;;;17.20;99.90;;;;;;6226413;23;20020;-76
2022/10/03 13:31:29;;;;;;;4.22;1.10;;;17.10;99.90;;;;;;6227070;23;20035;-77
2022/10/03 13:34:11;;;;;;;5.35;1.42;;;17.10;99.90;;;;;;6227625;23;20114;-78
2022/10/03 13:37:04;;;;;;;12.70;3.28;;;17.00;99.90;;;;;;6250702;23;20027;-76
2022/10/03 13:40:00;;;;;;;5.80;1.48;;;16.90;99.90;;;;;;6227325;23;20047;-78
2022/10/03 13:43:38;;;;;;;2.47;0.85;;;16.90;99.90;;;;;;6250977;23;20012;-77
2022/10/03 13:46:15;;;;;;;1.95;0.80;;;16.80;99.90;;;;;;6210651;23;20028;-79
2022/10/03 13:48:46;;;;;;;2.47;0.80;;;16.80;99.90;;;;;;6253299;23;20020;-76
2022/10/03 13:51:28;;;;;;;4.55;0.98;;;16.90;99.90;;;;;;6227015;23;20004;-79
2022/10/03 13:53:58;;;;;;;3.83;0.80;;;16.90;99.90;;;;;;6254003;23;20020;-78
2022/10/03 13:56:47;;;;;;;3.47;1.00;;;17.00;99.90;;;;;;6253188;23;20040;-77
2022/10/03 13:59:31;;;;;;;3.47;1.00;;;17.00;99.90;;;;;;6253267;23;20039;-77
2022/10/03 14:02:09;;;;;;;2.15;0.90;;;17.00;99.90;;;;;;6228709;23;20329;-79
2022/10/03 14:04:59;;;;;;;3.55;0.93;;;16.90;99.90;;;;;;6253050;23;20019;-78
2022/10/03 14:08:13;;;;;;;2.50;1.10;;;16.90;99.90;;;;;;6253829;23;20058;-77
2022/10/03 14:11:17;;;;;;;5.75;0.95;;;16.80;99.90;;;;;;6227709;23;20014;-80
2022/10/03 14:14:17;;;;;;;3.65;1.17;;;16.90;99.90;;;;;;6244883;23;20007;-79
2022/10/03 14:17:01;;;;;;;4.47;1.02;;;16.80;99.90;;;;;;6245379;23;20012;-77
2022/10/03 14:19:57;;;;;;;2.75;1.02;;;16.70;99.90;;;;;;6252585;23;20098;-80
2022/10/03 14:22:55;;;;;;;3.67;0.98;;;16.70;99.90;;;;;;6252900;23;20062;-76
2022/10/03 14:26:04;;;;;;;3.15;0.82;;;16.70;99.90;;;;;;6251769;23;20086;-76
2022/10/03 14:28:48;;;;;;;6.03;1.27;;;16.60;99.90;;;;;;6083855;23;20018;-76
2022/10/03 14:31:30;;;;;;;4.53;1.20;;;16.60;99.90;;;;;;6084496;23;20037;-76
2022/10/03 14:34:35;;;;;;;3.83;1.10;;;16.50;99.90;;;;;;6208867;23;20073;-78
2022/10/03 14:37:27;;;;;;;5.72;1.60;;;16.40;99.90;;;;;;6107196;23;20017;-79
2022/10/03 14:40:11;;;;;;;3.85;1.00;;;16.40;99.90;;;;;;6096299;23;20013;-81
2022/10/03 14:42:47;;;;;;;5.90;0.97;;;16.40;99.90;;;;;;6195145;23;20206;-77
2022/10/03 14:45:17;;;;;;;3.70;1.48;;;16.40;99.90;;;;;;6228361;23;20259;-80
2022/10/03 14:47:50;;;;;;;2.33;1.00;;;16.40;99.90;;;;;;6227250;23;20008;-78
2022/10/03 14:50:23;;;;;;;4.85;1.25;;;16.40;99.90;;;;;;6227836;23;20302;-84
2022/10/03 14:53:05;;;;;;;5.95;1.42;;;16.10;99.90;;;;;;6229399;23;20221;-82
2022/10/03 15:26:32;;;;;;;6.03;1.00;;;16.30;99.90;;;;;;6209426;22;20520;-81
2022/10/03 15:29:02;;;;;;;3.63;0.82;;;16.80;99.90;;;;;;6211347;23;20078;-79
2022/10/03 15:31:44;;;;;;;4.00;0.93;;;16.30;99.90;;;;;;6225397;23;20328;-79
2022/10/03 15:34:32;;;;;;;3.88;1.08;;;16.20;99.90;;;;;;6225019;23;20358;-79